Time;durP1;ratioP1;P1;durP2;ratioP2;P2;SDS_P1;SDS_P2;PMS_P1;PMS_P2;Temp;Humidity;BMP_temperature;BMP_pressure;BME280_temperature;BME280_humidity;BME280_pressure;Samples;Min_cycle;Max_cycle;Signal;HPM_P1;HPM_P2
2021/08/01 00:01:05;;;;;;;6.37;4.15;;;16.10;99.90;;;16.57;100.00;94313.00;2158175;57;27218;-56
2021/08/01 00:03:53;;;;;;;8.00;4.78;;;16.10;99.90;;;16.52;100.00;94305.00;2358617;56;27450;-56
2021/08/01 00:06:39;;;;;;;7.12;4.53;;;16.00;99.90;;;16.51;100.00;94316.00;2159824;56;26790;-56
2021/08/01 00:09:26;;;;;;;5.87;4.62;;;16.00;99.90;;;16.59;100.00;94334.00;2387359;55;26831;-56
2021/08/01 00:12:12;;;;;;;5.95;4.70;;;16.00;99.90;;;16.54;100.00;94334.00;2171773;56;26745;-55
2021/08/01 00:15:00;;;;;;;6.32;4.53;;;15.90;99.90;;;16.39;100.00;94334.00;2385460;55;26180;-56
2021/08/01 00:17:46;;;;;;;7.32;4.53;;;15.90;99.90;;;16.35;100.00;94332.00;2170933;56;27370;-55
2021/08/01 00:20:32;;;;;;;6.75;4.32;;;15.90;99.90;;;16.40;100.00;94315.00;2387843;55;26705;-56
2021/08/01 00:23:19;;;;;;;8.02;4.75;;;16.00;99.90;;;16.56;100.00;94317.00;2171954;56;27703;-56
2021/08/01 00:26:05;;;;;;;13.23;5.05;;;16.10;99.90;;;16.58;100.00;94322.00;2385460;55;26711;-55
2021/08/01 00:28:51;;;;;;;8.10;4.70;;;16.00;99.90;;;16.57;100.00;94331.00;2204021;56;27498;-55
2021/08/01 00:31:38;;;;;;;7.22;4.65;;;16.10;99.90;;;16.56;100.00;94324.00;2206298;56;26820;-56
2021/08/01 00:34:24;;;;;;;5.87;4.50;;;16.10;99.90;;;16.55;100.00;94322.00;2422791;55;26873;-55
2021/08/01 00:40:09;;;;;;;7.05;5.25;;;16.10;99.90;;;16.74;100.00;94300.00;2398055;55;34181;-56
2021/08/01 00:42:55;;;;;;;5.45;4.43;;;16.10;99.90;;;16.58;100.00;94322.00;2359166;56;26727;-56
2021/08/01 00:45:42;;;;;;;5.53;4.72;;;16.10;99.90;;;16.61;100.00;94319.00;2166868;55;26667;-56
2021/08/01 00:48:29;;;;;;;6.37;4.82;;;16.10;99.90;;;16.55;100.00;94315.00;2153054;56;26724;-55
2021/08/01 00:51:15;;;;;;;7.85;4.87;;;16.10;99.90;;;16.68;100.00;94312.00;2402220;55;27158;-56
2021/08/01 00:54:02;;;;;;;6.70;5.20;;;16.20;99.90;;;16.67;100.00;94300.00;2184315;55;26802;-56
2021/08/01 00:56:49;;;;;;;6.85;5.25;;;16.20;99.90;;;16.70;100.00;94299.00;2369478;56;26170;-56
2021/08/01 00:59:38;;;;;;;5.90;5.15;;;16.20;99.90;;;16.73;100.00;94301.00;2160574;56;26862;-56
2021/08/01 01:02:35;;;;;;;5.90;5.22;;;16.20;99.90;;;16.75;100.00;94300.00;2404381;55;26745;-55
2021/08/01 01:05:27;;;;;;;8.10;5.45;;;16.20;99.90;;;16.70;100.00;94293.00;2403553;55;26294;-56
2021/08/01 01:11:19;;;;;;;7.47;5.03;;;16.20;99.90;;;16.80;100.00;94270.00;2369444;56;34797;-55
2021/08/01 01:17:05;;;;;;;6.82;5.40;;;16.20;99.90;;;16.86;100.00;94258.00;2456466;53;33767;-54
2021/08/01 01:20:26;;;;;;;7.03;5.22;;;16.30;99.90;;;16.89;100.00;94257.00;2449219;54;27430;-55
2021/08/01 01:23:34;;;;;;;6.80;5.47;;;16.40;99.90;;;17.16;100.00;94222.00;2231713;54;26980;-55
2021/08/01 01:26:31;;;;;;;7.55;5.57;;;16.50;99.90;;;17.11;100.00;94194.00;2457503;54;26847;-54
2021/08/01 01:29:27;;;;;;;6.18;5.37;;;16.40;99.90;;;16.84;100.00;94161.00;2237203;55;26618;-55
2021/08/01 01:35:17;;;;;;;6.15;5.55;;;16.20;99.90;;;16.65;100.00;94097.00;2447710;54;34374;-55
2021/08/01 01:38:05;;;;;;;6.35;5.75;;;16.10;99.90;;;16.52;100.00;94108.00;2178188;55;27312;-55
2021/08/01 01:40:54;;;;;;;7.45;5.85;;;16.00;99.90;;;16.44;100.00;94109.00;2424211;55;27378;-56
2021/08/01 01:43:41;;;;;;;6.50;5.50;;;16.00;99.90;;;16.55;100.00;94121.00;2228728;55;26631;-56
2021/08/01 01:46:27;;;;;;;7.13;5.60;;;15.90;99.90;;;16.42;100.00;94139.00;2454892;55;26593;-55
2021/08/01 01:49:15;;;;;;;6.20;5.60;;;15.90;99.90;;;16.38;100.00;94144.00;2210488;55;26997;-55
2021/08/01 01:52:03;;;;;;;10.55;6.28;;;15.90;99.90;;;16.34;100.00;94149.00;2456154;55;26805;-56
2021/08/01 01:54:49;;;;;;;6.37;5.85;;;15.90;99.90;;;16.29;100.00;94163.00;2230684;56;27252;-56
2021/08/01 01:57:38;;;;;;;7.87;6.20;;;15.80;99.90;;;16.18;100.00;94192.00;2456414;55;27366;-55
2021/08/01 02:03:22;;;;;;;9.82;6.82;;;15.80;99.90;;;16.36;100.00;94178.00;2330688;57;34731;-56
2021/08/01 02:06:08;;;;;;;7.25;5.85;;;15.80;99.90;;;16.21;100.00;94196.00;2317546;58;27088;-55
2021/08/01 02:15:03;;;;;;;8.13;7.00;;;15.90;99.90;;;16.51;100.00;94178.00;2443133;54;33537;-56
2021/08/01 02:17:56;;;;;;;9.30;6.95;;;16.00;99.90;;;16.51;100.00;94212.00;2239172;55;26715;-56
2021/08/01 02:20:47;;;;;;;9.63;7.30;;;15.90;99.90;;;16.26;100.00;94211.00;2209068;55;26745;-56
2021/08/01 02:23:39;;;;;;;8.10;7.05;;;15.80;99.90;;;16.25;100.00;94217.00;2210336;55;27204;-55
2021/08/01 02:26:26;;;;;;;8.95;7.28;;;15.80;99.90;;;16.30;100.00;94239.00;2433723;55;26653;-55
2021/08/01 02:29:13;;;;;;;8.18;7.37;;;15.80;99.90;;;16.26;100.00;94250.00;2210472;55;27072;-55
2021/08/01 02:32:01;;;;;;;7.50;6.80;;;15.70;99.90;;;16.17;100.00;94216.00;2219718;54;26949;-53
2021/08/01 02:34:48;;;;;;;8.52;7.15;;;15.80;99.90;;;16.25;100.00;94172.00;2477846;54;27167;-55
2021/08/01 02:37:36;;;;;;;10.90;7.93;;;15.80;99.90;;;16.36;100.00;94124.00;2266582;54;26965;-56
2021/08/01 02:40:23;;;;;;;9.20;7.05;;;15.90;99.90;;;16.56;100.00;94120.00;2268660;54;26510;-55
2021/08/01 02:43:13;;;;;;;8.75;7.18;;;15.90;99.90;;;16.48;100.00;94131.00;2268700;54;26711;-56
2021/08/01 02:46:02;;;;;;;8.23;7.35;;;15.90;99.90;;;16.49;100.00;94138.00;2267923;54;26660;-55
2021/08/01 02:48:50;;;;;;;9.95;8.00;;;16.00;99.90;;;16.53;100.00;94141.00;2504050;53;26693;-55
2021/08/01 02:51:36;;;;;;;7.53;6.82;;;15.90;99.90;;;16.37;100.00;94137.00;2490597;54;27356;-55
2021/08/01 02:57:21;;;;;;;9.25;7.12;;;15.80;99.90;;;16.20;100.00;94127.00;2410827;55;33776;-56
2021/08/01 03:03:06;;;;;;;8.52;6.90;;;15.60;99.90;;;16.20;100.00;94152.00;2402750;55;35035;-56
2021/08/01 03:05:53;;;;;;;6.57;5.85;;;15.50;99.90;;;16.05;100.00;94165.00;2180951;56;26935;-55
2021/08/01 03:08:39;;;;;;;8.55;6.32;;;15.40;99.90;;;15.93;100.00;94176.00;2152323;57;26264;-55
2021/08/01 03:11:25;;;;;;;6.40;5.45;;;15.40;99.90;;;15.81;100.00;94188.00;2157315;57;26686;-55
2021/08/01 03:14:13;;;;;;;6.80;5.10;;;15.30;99.90;;;15.77;100.00;94198.00;2188457;55;26134;-56
2021/08/01 03:16:59;;;;;;;9.07;5.40;;;15.20;99.90;;;15.65;100.00;94200.00;2204793;55;26122;-55
2021/08/01 03:19:45;;;;;;;6.80;5.07;;;15.10;99.90;;;15.48;100.00;94212.00;2201401;56;26742;-55
2021/08/01 03:22:32;;;;;;;7.03;5.00;;;15.00;99.90;;;15.44;100.00;94230.00;2404569;55;27160;-55
2021/08/01 03:28:16;;;;;;;7.65;5.20;;;14.80;99.90;;;15.34;100.00;94202.00;2391140;55;34183;-54
2021/08/01 03:31:03;;;;;;;5.90;5.40;;;14.80;99.90;;;15.20;100.00;94219.00;2362063;57;26776;-55
2021/08/01 03:33:49;;;;;;;6.93;5.20;;;14.70;99.90;;;15.11;100.00;94204.00;2151061;58;26712;-55
2021/08/01 03:36:36;;;;;;;8.02;4.78;;;14.70;99.90;;;15.17;100.00;94207.00;2354879;56;26742;-55
2021/08/01 03:39:22;;;;;;;7.12;5.55;;;14.60;99.90;;;15.04;100.00;94219.00;2162149;56;26201;-55
2021/08/01 03:42:08;;;;;;;6.70;4.85;;;14.50;99.90;;;14.91;100.00;94256.00;2373772;56;26676;-55
2021/08/01 03:44:55;;;;;;;7.07;4.75;;;14.40;99.90;;;14.74;100.00;94310.00;2152052;56;26813;-55
2021/08/01 03:47:41;;;;;;;6.60;5.10;;;14.20;99.90;;;14.57;100.00;94283.00;2163577;56;26702;-55
2021/08/01 03:50:27;;;;;;;6.50;4.87;;;14.20;99.90;;;14.76;100.00;94247.00;2374768;56;26117;-54
2021/08/01 03:53:14;;;;;;;6.53;4.30;;;14.20;99.90;;;14.70;100.00;94275.00;2163408;57;27149;-55
2021/08/01 03:56:03;;;;;;;6.05;4.30;;;14.20;99.90;;;14.71;100.00;94297.00;2378554;56;26556;-56
2021/08/01 03:58:50;;;;;;;6.78;5.10;;;14.10;99.90;;;14.63;100.00;94301.00;2164551;57;27357;-56
2021/08/01 04:01:37;;;;;;;5.57;5.07;;;14.10;99.90;;;14.54;100.00;94300.00;2376525;56;26727;-55
2021/08/01 04:04:23;;;;;;;6.15;4.93;;;14.10;99.90;;;14.61;100.00;94311.00;2162731;57;26798;-55
2021/08/01 04:07:09;;;;;;;5.20;4.32;;;14.10;99.90;;;14.52;100.00;94321.00;2375351;56;26597;-55
2021/08/01 04:09:56;;;;;;;5.10;3.60;;;14.10;99.90;;;14.48;100.00;94321.00;2165407;57;26725;-56
2021/08/01 04:12:42;;;;;;;4.85;3.05;;;14.10;99.90;;;14.47;100.00;94317.00;2377531;56;26690;-55
2021/08/01 04:15:28;;;;;;;3.30;2.70;;;14.00;99.90;;;14.34;100.00;94302.00;2377896;56;27291;-55
2021/08/01 04:18:15;;;;;;;4.50;2.55;;;14.10;99.90;;;14.45;100.00;94315.00;2161441;57;26850;-56
2021/08/01 04:21:06;;;;;;;2.83;2.55;;;14.10;99.90;;;14.51;100.00;94318.00;2368427;56;26748;-56
2021/08/01 04:23:52;;;;;;;3.83;2.20;;;14.10;99.90;;;14.45;100.00;94327.00;2159520;57;26932;-56
2021/08/01 04:26:39;;;;;;;7.60;2.00;;;14.00;99.90;;;14.37;100.00;94325.00;2376586;56;27517;-57
2021/08/01 04:29:25;;;;;;;1.90;1.80;;;14.00;99.90;;;14.35;100.00;94325.00;2163470;57;26813;-57
2021/08/01 04:32:12;;;;;;;5.62;1.90;;;14.00;99.90;;;14.42;100.00;94327.00;2376553;56;27262;-56
2021/08/01 04:34:58;;;;;;;2.00;1.73;;;14.00;99.90;;;14.39;100.00;94328.00;2163377;57;26123;-59
2021/08/01 04:37:44;;;;;;;2.10;1.57;;;14.00;99.90;;;14.44;100.00;94345.00;2376756;56;27145;-59
2021/08/01 04:43:27;;;;;;;1.50;1.40;;;14.00;99.90;;;14.48;100.00;94332.00;2400499;54;33830;-57
2021/08/01 04:46:14;;;;;;;3.03;1.50;;;13.90;99.90;;;14.34;100.00;94354.00;2187436;55;27132;-57
2021/08/01 04:48:59;;;;;;;2.33;1.30;;;14.00;99.90;;;14.45;100.00;94367.00;2434231;54;26633;-57
2021/08/01 04:51:46;;;;;;;1.50;1.40;;;13.90;99.90;;;14.30;100.00;94369.00;2222660;55;27171;-57
2021/08/01 04:54:35;;;;;;;1.73;1.43;;;13.90;99.90;;;14.28;100.00;94363.00;2448214;54;26801;-57
2021/08/01 04:57:21;;;;;;;1.35;1.15;;;13.80;99.90;;;14.20;100.00;94376.00;2227647;55;26809;-57
2021/08/01 05:03:04;;;;;;;1.42;1.30;;;13.90;99.90;;;14.28;100.00;94387.00;2380579;55;34279;-57
2021/08/01 05:05:51;;;;;;;1.50;1.40;;;13.70;99.90;;;14.15;100.00;94408.00;2373985;55;26780;-57
2021/08/01 05:08:38;;;;;;;2.97;1.40;;;13.80;99.90;;;14.20;100.00;94414.00;2156611;56;26675;-57
2021/08/01 05:11:24;;;;;;;1.73;1.50;;;13.80;99.90;;;14.17;100.00;94414.00;2372287;55;27189;-56
2021/08/01 05:14:10;;;;;;;1.85;1.48;;;13.70;99.90;;;14.12;100.00;94412.00;2161917;56;26668;-57
2021/08/01 05:16:57;;;;;;;2.55;1.77;;;13.70;99.90;;;14.08;100.00;94420.00;2159611;56;26594;-57
2021/08/01 05:19:44;;;;;;;2.00;1.60;;;13.70;99.90;;;14.07;100.00;94425.00;2371998;56;26733;-56
2021/08/01 05:22:30;;;;;;;1.70;1.60;;;13.70;99.90;;;14.10;100.00;94437.00;2156767;56;26259;-56
2021/08/01 05:28:14;;;;;;;3.20;1.80;;;13.70;99.90;;;14.23;100.00;94429.00;2448773;54;34115;-57
2021/08/01 05:31:00;;;;;;;2.20;1.50;;;13.70;99.90;;;14.11;100.00;94443.00;2207155;56;26624;-56
2021/08/01 05:33:47;;;;;;;2.22;1.67;;;13.60;99.90;;;14.05;100.00;94456.00;2185275;56;26719;-57
2021/08/01 05:39:29;;;;;;;2.00;1.80;;;13.60;99.90;;;14.11;100.00;94436.00;2415924;54;34213;-57
2021/08/01 05:42:16;;;;;;;2.03;1.80;;;13.60;99.90;;;14.11;100.00;94451.00;2217164;56;26643;-58
2021/08/01 05:45:02;;;;;;;3.60;1.98;;;13.60;99.90;;;14.08;100.00;94449.00;2220479;55;27081;-57
2021/08/01 05:47:48;;;;;;;3.17;1.83;;;13.70;99.90;;;14.10;100.00;94463.00;2468370;54;26689;-57
2021/08/01 05:50:35;;;;;;;2.65;1.70;;;13.60;99.90;;;14.11;100.00;94468.00;2238986;55;26745;-57
2021/08/01 05:53:21;;;;;;;3.35;1.90;;;13.70;99.90;;;14.14;100.00;94472.00;2467508;55;26735;-57
2021/08/01 05:56:10;;;;;;;2.17;1.67;;;13.70;99.90;;;14.20;100.00;94474.00;2238962;55;26779;-57
2021/08/01 05:58:56;;;;;;;3.35;1.90;;;13.60;99.90;;;14.04;100.00;94486.00;2466773;55;27170;-57
2021/08/01 06:04:39;;;;;;;2.90;2.12;;;13.50;99.90;;;13.81;100.00;94484.00;2380737;55;34564;-57
2021/08/01 06:07:26;;;;;;;2.72;1.85;;;13.50;99.90;;;13.81;100.00;94507.00;2140090;58;26593;-57
2021/08/01 06:13:10;;;;;;;2.83;1.92;;;13.30;99.90;;;13.62;100.00;94484.00;2392069;55;33762;-55
2021/08/01 06:15:57;;;;;;;2.05;1.83;;;13.30;99.90;;;13.70;100.00;94516.00;2189467;55;26713;-57
2021/08/01 06:18:44;;;;;;;2.60;2.22;;;13.30;99.90;;;13.62;100.00;94515.00;2166117;57;27118;-57
2021/08/01 06:21:30;;;;;;;2.30;2.10;;;13.40;99.90;;;13.74;100.00;94520.00;2371798;57;26751;-57
2021/08/01 06:24:17;;;;;;;2.80;2.20;;;13.30;99.90;;;13.74;100.00;94512.00;2160426;57;26687;-57
2021/08/01 06:27:05;;;;;;;3.80;2.30;;;13.30;99.90;;;13.68;100.00;94515.00;2372449;56;26410;-56
2021/08/01 06:29:51;;;;;;;3.33;2.40;;;13.30;99.90;;;13.77;100.00;94517.00;2161118;56;26812;-56
2021/08/01 06:32:37;;;;;;;3.85;2.53;;;13.40;99.90;;;13.83;100.00;94518.00;2373827;56;26210;-56
2021/08/01 06:35:23;;;;;;;3.67;2.40;;;13.40;99.90;;;13.83;100.00;94529.00;2161436;56;26332;-56
2021/08/01 06:38:10;;;;;;;6.15;3.60;;;13.60;99.90;;;14.09;100.00;94525.00;2372670;56;27512;-55
2021/08/01 06:40:56;;;;;;;3.62;2.70;;;13.50;99.90;;;13.97;100.00;94528.00;2162610;56;26536;-57
2021/08/01 06:43:42;;;;;;;3.93;2.50;;;13.50;99.90;;;13.91;100.00;94528.00;2369377;56;26865;-57
2021/08/01 06:46:29;;;;;;;4.22;2.50;;;13.50;99.90;;;13.87;100.00;94532.00;2360340;56;26924;-56
2021/08/01 06:52:11;;;;;;;3.08;2.37;;;13.50;99.90;;;13.95;100.00;94511.00;2461088;54;33621;-56
2021/08/01 06:54:58;;;;;;;2.50;2.30;;;13.50;99.90;;;13.89;100.00;94547.00;2437882;54;26828;-56
2021/08/01 07:00:46;;;;;;;4.22;2.72;;;13.70;99.90;;;14.37;100.00;94538.00;2367596;56;34264;-54
2021/08/01 07:06:30;;;;;;;3.20;2.22;;;13.90;99.90;;;14.53;100.00;94535.00;2351134;56;33781;-55
2021/08/01 07:09:16;;;;;;;4.70;2.10;;;13.90;99.90;;;14.43;100.00;94546.00;2368610;56;26751;-56
2021/08/01 07:12:04;;;;;;;3.83;2.25;;;14.00;99.90;;;14.50;100.00;94549.00;2159493;56;26756;-58
2021/08/01 07:17:48;;;;;;;6.22;2.25;;;14.20;99.90;;;14.77;100.00;94519.00;2408490;54;33333;-56
2021/08/01 07:20:35;;;;;;;2.15;1.70;;;14.30;99.90;;;14.89;100.00;94529.00;2196807;56;26611;-56
2021/08/01 07:26:18;;;;;;;2.45;1.75;;;14.60;99.90;;;15.28;100.00;94505.00;2454189;54;34071;-56
2021/08/01 07:29:05;;;;;;;1.90;1.58;;;14.60;99.90;;;15.08;100.00;94511.00;2435403;55;26204;-56
2021/08/01 07:31:51;;;;;;;3.13;2.00;;;14.50;99.90;;;14.99;100.00;94507.00;2212862;54;26276;-55
2021/08/01 07:37:33;;;;;;;2.00;1.80;;;14.70;99.90;;;15.54;100.00;94505.00;2417716;55;33186;-54
2021/08/01 07:40:20;;;;;;;4.28;1.70;;;14.80;99.90;;;15.35;100.00;94517.00;2176964;55;27356;-55
2021/08/01 07:43:07;;;;;;;3.97;1.90;;;14.60;99.90;;;14.91;100.00;94518.00;2165403;56;27205;-55
2021/08/01 07:45:53;;;;;;;2.28;2.08;;;14.50;99.90;;;14.86;100.00;94528.00;2154706;56;26155;-55
2021/08/01 07:48:40;;;;;;;2.45;1.85;;;14.40;99.90;;;14.66;100.00;94541.00;2378997;55;26100;-55
2021/08/01 07:54:24;;;;;;;3.05;2.03;;;14.20;99.90;;;15.22;100.00;94512.00;2412727;55;33593;-55
2021/08/01 07:57:23;;;;;;;3.53;1.90;;;14.90;99.90;;;15.86;100.00;94525.00;2186587;56;27126;-54
2021/08/01 08:00:13;;;;;;;3.08;1.90;;;15.50;99.90;;;16.53;100.00;94515.00;2407364;55;26700;-55
2021/08/01 08:02:59;;;;;;;1.30;1.20;;;16.10;99.90;;;17.23;100.00;94519.00;2190756;56;26674;-55
2021/08/01 08:05:46;;;;;;;1.65;1.27;;;16.30;99.90;;;17.21;100.00;94511.00;2407901;55;26708;-55
2021/08/01 08:08:32;;;;;;;2.00;1.70;;;16.30;99.90;;;16.89;100.00;94499.00;2195057;56;27439;-58
2021/08/01 08:11:19;;;;;;;3.97;1.90;;;16.20;99.90;;;16.95;100.00;94501.00;2412840;55;26875;-56
2021/08/01 08:17:04;;;;;;;2.15;1.50;;;16.10;99.90;;;16.80;100.00;94484.00;2427193;54;33124;-55
2021/08/01 08:19:51;;;;;;;1.92;1.60;;;15.70;99.90;;;16.25;100.00;94490.00;2212229;55;27278;-55
2021/08/01 08:22:37;;;;;;;1.80;1.70;;;15.40;99.90;;;15.86;100.00;94493.00;2435960;54;26689;-55
2021/08/01 08:25:24;;;;;;;4.80;1.70;;;15.30;99.90;;;15.74;100.00;94494.00;2222421;55;26726;-56
2021/08/01 08:28:10;;;;;;;2.55;1.70;;;15.20;99.90;;;15.57;100.00;94501.00;2458675;54;26653;-55
2021/08/01 08:36:52;;;;;;;1.67;1.52;;;15.00;99.90;;;15.62;100.00;94502.00;2442383;53;34696;-54
2021/08/01 08:42:36;;;;;;;2.97;1.98;;;15.30;99.90;;;16.09;100.00;94490.00;2438704;54;34660;-54
2021/08/01 08:45:23;;;;;;;1.65;1.55;;;15.50;99.90;;;16.19;100.00;94499.00;2213664;55;26672;-54
2021/08/01 08:48:09;;;;;;;1.95;1.70;;;15.60;99.90;;;16.16;100.00;94510.00;2472580;54;27200;-54
2021/08/01 08:56:51;;;;;;;2.08;1.55;;;15.50;99.90;;;16.03;100.00;94499.00;2401448;55;34208;-55
2021/08/01 08:59:37;;;;;;;2.20;1.60;;;15.10;99.90;;;15.68;100.00;94509.00;2188190;56;26584;-54
2021/08/01 09:02:24;;;;;;;2.75;2.00;;;15.00;99.90;;;15.60;100.00;94510.00;2415169;55;27172;-54
2021/08/01 09:05:11;;;;;;;2.28;1.67;;;14.80;99.90;;;15.24;100.00;94511.00;2360936;56;26231;-55
2021/08/01 09:07:58;;;;;;;4.00;2.03;;;14.70;99.90;;;15.18;100.00;94510.00;2382856;56;26682;-55
2021/08/01 09:10:44;;;;;;;1.77;1.67;;;14.60;99.90;;;15.03;100.00;94508.00;2188133;56;26546;-54
2021/08/01 09:13:48;;;;;;;3.78;1.90;;;14.70;99.90;;;15.27;100.00;94514.00;2189870;57;26246;-54
2021/08/01 09:16:46;;;;;;;2.62;1.90;;;14.60;99.90;;;15.12;100.00;94509.00;2189015;57;27285;-55
2021/08/01 09:19:35;;;;;;;2.70;1.80;;;14.80;99.90;;;15.38;100.00;94516.00;2168287;57;26686;-55
2021/08/01 09:22:22;;;;;;;2.10;1.90;;;15.10;99.90;;;15.78;100.00;94511.00;2376301;56;26898;-55
2021/08/01 09:28:17;;;;;;;4.25;2.12;;;15.20;99.90;;;16.23;100.00;94502.00;2466790;54;33566;-55
2021/08/01 09:31:05;;;;;;;2.00;1.80;;;15.70;99.90;;;16.51;100.00;94510.00;2457230;54;26239;-55
2021/08/01 09:33:53;;;;;;;2.20;2.00;;;16.10;99.90;;;16.94;100.00;94510.00;2203054;55;26118;-54
2021/08/01 09:36:57;;;;;;;2.17;1.80;;;16.20;99.90;;;17.03;100.00;94508.00;2192263;55;26248;-54
2021/08/01 09:39:44;;;;;;;1.92;1.58;;;16.30;99.90;;;16.98;100.00;94513.00;2204738;55;26200;-56
2021/08/01 09:42:44;;;;;;;2.37;1.70;;;16.30;99.90;;;17.06;100.00;94510.00;2263640;54;26636;-56
2021/08/01 09:45:31;;;;;;;3.12;1.65;;;16.60;99.90;;;17.53;100.00;94509.00;2272524;54;27434;-55
2021/08/01 09:51:17;;;;;;;1.87;1.60;;;17.30;99.90;;;18.45;100.00;94489.00;2489072;53;34082;-55
2021/08/01 09:54:03;;;;;;;2.10;1.90;;;17.50;99.90;;;18.46;100.00;94490.00;2237878;54;27096;-54
2021/08/01 10:00:09;;;;;;;3.05;2.00;;;17.10;99.90;;;18.04;100.00;94492.00;2488266;54;34005;-55
2021/08/01 10:02:59;;;;;;;2.20;1.80;;;17.30;99.90;;;18.14;100.00;94490.00;2467275;54;26662;-55
2021/08/01 10:09:04;;;;;;;2.08;1.80;;;17.30;99.90;;;18.16;100.00;94490.00;2425360;55;34901;-55
2021/08/01 10:11:54;;;;;;;2.10;1.90;;;17.20;99.90;;;18.07;100.00;94497.00;2204148;55;26640;-55
2021/08/01 10:14:42;;;;;;;2.22;1.85;;;17.20;99.90;;;17.74;100.00;94489.00;2436107;55;26593;-55
2021/08/01 10:17:29;;;;;;;2.90;1.70;;;17.30;99.90;;;18.00;100.00;94502.00;2214118;56;26882;-55
2021/08/01 10:20:15;;;;;;;2.33;1.90;;;17.20;99.90;;;17.60;100.00;94496.00;2213306;55;26772;-55
2021/08/01 10:23:02;;;;;;;2.10;1.90;;;16.60;99.90;;;16.81;100.00;94497.00;2435434;55;26636;-55
2021/08/01 10:25:50;;;;;;;2.87;1.98;;;16.40;99.90;;;16.81;100.00;94507.00;2213645;56;26808;-55
2021/08/01 10:28:42;;;;;;;3.12;2.10;;;16.20;99.90;;;16.56;100.00;94501.00;2213566;56;27433;-55
2021/08/01 10:31:34;;;;;;;2.28;2.03;;;16.10;99.90;;;16.58;100.00;94503.00;2435186;55;26716;-55
2021/08/01 10:34:40;;;;;;;2.28;1.87;;;16.00;99.90;;;16.56;100.00;94512.00;2181117;56;26659;-56
2021/08/01 10:37:31;;;;;;;2.87;2.03;;;16.00;99.90;;;16.55;100.00;94511.00;2388557;56;26164;-54
2021/08/01 10:40:21;;;;;;;2.60;1.95;;;16.00;99.90;;;16.44;100.00;94511.00;2168253;56;27363;-53
2021/08/01 10:46:09;;;;;;;1.90;1.77;;;15.90;99.90;;;16.31;100.00;94498.00;2498971;52;33739;-55
2021/08/01 10:49:01;;;;;;;2.37;2.05;;;15.70;99.90;;;16.00;100.00;94499.00;2292290;53;26129;-55
2021/08/01 10:51:47;;;;;;;2.53;1.77;;;15.50;99.90;;;15.93;100.00;94491.00;2520212;52;26673;-56
2021/08/01 10:54:33;;;;;;;2.10;1.90;;;15.50;99.90;;;15.95;100.00;94494.00;2286555;53;26625;-55
2021/08/01 10:57:21;;;;;;;2.67;1.92;;;15.50;99.90;;;15.91;100.00;94509.00;2534899;52;26679;-55
2021/08/01 11:00:13;;;;;;;2.70;1.95;;;15.40;99.90;;;15.90;100.00;94512.00;2293880;53;26845;-55
2021/08/01 11:06:43;;;;;;;4.28;1.95;;;15.30;99.90;;;15.85;100.00;94520.00;2459728;54;34555;-55
2021/08/01 11:09:30;;;;;;;2.62;2.10;;;15.10;99.90;;;15.49;100.00;94529.00;2435881;54;26808;-55
2021/08/01 11:12:32;;;;;;;2.50;2.30;;;15.00;99.90;;;15.44;100.00;94526.00;2212385;55;26578;-56
2021/08/01 11:15:41;;;;;;;2.33;2.12;;;14.90;99.90;;;15.43;100.00;94529.00;2435360;55;27412;-54
2021/08/01 11:18:32;;;;;;;2.85;2.30;;;15.00;99.90;;;15.57;100.00;94525.00;2204158;55;26703;-56
2021/08/01 11:21:36;;;;;;;2.58;2.00;;;15.00;99.90;;;15.53;100.00;94524.00;2401109;55;26903;-55
2021/08/01 11:24:23;;;;;;;2.45;2.15;;;15.00;99.90;;;15.50;100.00;94520.00;2411863;55;26766;-56
2021/08/01 11:27:12;;;;;;;3.28;2.20;;;15.00;99.90;;;15.55;100.00;94525.00;2189679;55;27357;-55
2021/08/01 11:30:05;;;;;;;2.20;2.00;;;15.20;99.90;;;15.75;100.00;94533.00;2406354;55;26848;-56
2021/08/01 11:32:53;;;;;;;3.15;2.20;;;15.20;99.90;;;15.91;100.00;94533.00;2209304;55;26617;-55
2021/08/01 11:35:39;;;;;;;2.45;2.00;;;15.30;99.90;;;15.90;100.00;94536.00;2439235;55;26114;-56
2021/08/01 11:38:25;;;;;;;2.95;2.40;;;15.20;99.90;;;15.74;100.00;94533.00;2219586;55;27168;-56
2021/08/01 11:41:12;;;;;;;2.37;1.92;;;15.20;99.90;;;15.75;100.00;94533.00;2191700;56;26530;-56
2021/08/01 11:44:00;;;;;;;3.25;2.10;;;15.30;99.90;;;15.86;100.00;94533.00;2191568;55;26199;-56
2021/08/01 11:50:13;;;;;;;2.67;2.30;;;15.30;99.90;;;15.97;100.00;94532.00;2404363;54;34195;-55
2021/08/01 11:52:59;;;;;;;2.20;2.00;;;15.40;99.90;;;15.88;100.00;94546.00;2174968;56;26571;-55
2021/08/01 11:55:49;;;;;;;2.47;2.20;;;15.50;99.90;;;16.17;100.00;94546.00;2436189;55;26750;-56
2021/08/01 11:58:37;;;;;;;2.30;2.10;;;15.90;99.90;;;16.61;100.00;94538.00;2205152;56;26790;-56
2021/08/01 12:01:28;;;;;;;3.05;2.20;;;16.00;99.90;;;16.61;100.00;94542.00;2421621;55;26838;-57
2021/08/01 12:04:14;;;;;;;2.40;1.92;;;16.10;99.90;;;16.83;100.00;94536.00;2202939;56;26764;-55
2021/08/01 12:07:00;;;;;;;2.42;2.17;;;16.30;99.90;;;17.09;100.00;94536.00;2427213;55;26123;-55
2021/08/01 12:09:47;;;;;;;2.90;1.90;;;16.70;99.90;;;17.45;100.00;94535.00;2214809;56;26731;-56
2021/08/01 12:12:33;;;;;;;2.90;2.00;;;17.00;99.90;;;17.85;100.00;94531.00;2435760;55;26234;-56
2021/08/01 12:15:22;;;;;;;3.28;2.03;;;17.30;99.90;;;17.99;100.00;94535.00;2205416;55;26857;-56
2021/08/01 12:18:24;;;;;;;1.83;1.73;;;17.00;99.90;;;17.41;100.00;94521.00;2204171;55;26830;-55
2021/08/01 12:24:35;;;;;;;2.78;2.00;;;16.80;99.90;;;17.19;100.00;94534.00;2177935;55;33671;-56
2021/08/01 12:27:24;;;;;;;2.22;1.70;;;16.60;99.90;;;17.38;100.00;94546.00;2400276;55;26701;-56
2021/08/01 12:33:07;;;;;;;2.70;1.77;;;16.80;99.90;;;17.88;100.00;94541.00;2346356;55;34991;-56
2021/08/01 12:35:54;;;;;;;2.30;1.60;;;17.00;99.90;;;17.75;100.00;94537.00;2149143;57;26660;-55
2021/08/01 12:38:40;;;;;;;2.85;1.75;;;17.00;99.90;;;17.70;100.00;94530.00;2376872;56;26165;-58
2021/08/01 12:44:26;;;;;;;2.10;1.90;;;16.70;99.90;;;17.47;100.00;94533.00;2443783;54;34123;-56
2021/08/01 12:50:12;;;;;;;2.42;1.80;;;17.00;99.90;;;17.80;100.00;94536.00;2453983;54;33741;-55
2021/08/01 12:52:59;;;;;;;1.77;1.60;;;17.10;99.90;;;17.77;100.00;94539.00;2437304;55;26271;-56
2021/08/01 12:55:49;;;;;;;2.35;1.50;;;17.20;99.90;;;17.84;100.00;94548.00;2215285;55;27133;-55
2021/08/01 13:01:40;;;;;;;1.83;1.50;;;17.00;99.90;;;17.50;100.00;94524.00;2454246;54;33498;-56
2021/08/01 13:04:27;;;;;;;2.45;1.70;;;16.70;99.90;;;17.33;100.00;94528.00;2236663;55;26269;-55
2021/08/01 13:07:13;;;;;;;1.85;1.70;;;16.80;99.90;;;17.58;100.00;94522.00;2240767;56;26778;-56
2021/08/01 13:10:01;;;;;;;2.17;1.80;;;17.00;99.90;;;17.63;100.00;94530.00;2240696;56;26645;-56
2021/08/01 13:16:06;;;;;;;2.33;1.80;;;16.80;99.90;;;17.32;100.00;94509.00;2458520;54;34225;-56
2021/08/01 13:19:10;;;;;;;2.05;1.70;;;16.90;99.90;;;17.61;100.00;94514.00;2419793;55;26759;-56
2021/08/01 13:22:10;;;;;;;1.50;1.40;;;17.10;99.90;;;17.81;100.00;94522.00;2466305;54;26840;-56
2021/08/01 13:27:52;;;;;;;1.50;1.40;;;17.40;99.90;;;18.51;100.00;94508.00;2435747;55;33672;-56
2021/08/01 13:30:39;;;;;;;1.90;1.70;;;17.40;99.90;;;17.90;100.00;94518.00;2398071;55;26611;-56
2021/08/01 13:33:25;;;;;;;1.80;1.70;;;17.30;99.90;;;17.93;100.00;94508.00;2162337;58;27866;-55
2021/08/01 13:36:11;;;;;;;2.47;1.80;;;17.40;99.90;;;18.15;100.00;94515.00;2381465;56;26945;-57
2021/08/01 13:39:01;;;;;;;2.00;1.70;;;17.30;99.90;;;18.00;100.00;94518.00;2157555;56;27391;-55
2021/08/01 13:42:08;;;;;;;1.70;1.50;;;17.10;99.90;;;17.60;100.00;94512.00;2368817;56;27234;-56
2021/08/01 13:45:05;;;;;;;1.92;1.73;;;17.10;99.90;;;17.71;100.00;94516.00;2175819;56;26564;-56
2021/08/01 13:50:47;;;;;;;2.10;1.90;;;17.20;99.90;;;17.41;100.00;94510.00;2339963;56;35046;-56
2021/08/01 13:53:33;;;;;;;1.75;1.65;;;16.60;99.90;;;17.23;100.00;94524.00;2309346;57;26801;-57